Time;durP1;ratioP1;P1;durP2;ratioP2;P2;SDS_P1;SDS_P2;PMS_P1;PMS_P2;Temp;Humidity;BMP_temperature;BMP_pressure;BME280_temperature;BME280_humidity;BME280_pressure;Samples;Min_cycle;Max_cycle;Signal;HPM_P1;HPM_P2
2020/12/05 00:02:19;;;;;;;21.53;14.80;;;6.40;1.00;;;;;;5054684;28;20172;-59
2020/12/05 00:04:46;;;;;;;21.70;14.20;;;6.50;1.00;;;;;;5054706;28;20172;-56
2020/12/05 00:07:12;;;;;;;21.23;14.70;;;6.40;1.00;;;;;;5045256;28;20500;-59
2020/12/05 00:09:38;;;;;;;25.00;16.30;;;6.40;1.00;;;;;;5053602;28;20518;-59
2020/12/05 00:12:09;;;;;;;24.53;15.70;;;6.50;1.00;;;;;;5054384;28;20481;-58
2020/12/05 00:14:34;;;;;;;21.67;15.00;;;6.50;1.00;;;;;;5054516;28;20602;-55
2020/12/05 00:17:00;;;;;;;21.53;14.83;;;6.50;1.00;;;;;;5049605;28;20466;-60
2020/12/05 00:19:26;;;;;;;20.10;13.73;;;6.50;1.00;;;;;;5036714;28;20188;-60
2020/12/05 00:21:53;;;;;;;20.43;14.10;;;6.50;1.00;;;;;;5045547;28;20176;-58
2020/12/05 00:24:19;;;;;;;18.13;14.50;;;6.50;1.00;;;;;;5045433;28;20180;-59
2020/12/05 00:26:50;;;;;;;19.67;13.97;;;6.60;1.00;;;;;;5047519;28;20423;-59
2020/12/05 00:29:16;;;;;;;23.23;15.83;;;6.60;1.00;;;;;;5053491;28;20454;-59
2020/12/05 00:31:42;;;;;;;20.43;14.27;;;6.60;1.00;;;;;;5054122;28;20899;-55
2020/12/05 00:34:07;;;;;;;18.57;14.97;;;6.60;1.00;;;;;;5068834;28;20526;-55
2020/12/05 00:36:33;;;;;;;20.43;13.83;;;6.60;1.00;;;;;;5054385;28;20305;-56
2020/12/05 00:38:59;;;;;;;22.67;15.77;;;6.60;1.00;;;;;;5052041;28;20191;-59
2020/12/05 00:41:24;;;;;;;21.40;13.87;;;6.60;1.00;;;;;;5053463;28;20222;-54
2020/12/05 00:43:50;;;;;;;22.60;15.13;;;6.60;1.00;;;;;;5054834;28;20176;-58
2020/12/05 00:46:15;;;;;;;18.50;13.50;;;6.60;1.00;;;;;;5068018;28;20688;-58
2020/12/05 00:48:41;;;;;;;20.97;15.10;;;6.60;1.00;;;;;;5053625;28;20202;-58
2020/12/05 00:51:09;;;;;;;20.70;13.90;;;6.60;1.00;;;;;;5053562;28;20187;-59
2020/12/05 00:53:35;;;;;;;19.60;13.67;;;6.60;1.00;;;;;;5055850;28;20180;-58
2020/12/05 00:56:00;;;;;;;21.83;14.50;;;6.60;1.00;;;;;;5057443;28;20522;-56
2020/12/05 00:58:26;;;;;;;18.47;14.00;;;6.70;1.00;;;;;;5057359;28;20188;-55
2020/12/05 01:00:52;;;;;;;18.60;13.10;;;6.60;1.00;;;;;;5057576;28;20186;-58
2020/12/05 01:03:17;;;;;;;19.30;14.00;;;6.60;1.00;;;;;;5055661;28;20329;-55
2020/12/05 01:05:43;;;;;;;18.87;13.10;;;6.70;1.00;;;;;;5057145;28;20191;-55
2020/12/05 01:08:09;;;;;;;19.83;13.37;;;6.70;1.00;;;;;;5056803;28;20625;-58
2020/12/05 01:10:35;;;;;;;19.37;13.47;;;6.70;1.00;;;;;;5057492;28;20177;-58
2020/12/05 01:13:04;;;;;;;20.37;13.40;;;6.70;1.00;;;;;;5073353;28;20495;-58
2020/12/05 01:15:30;;;;;;;20.27;12.80;;;6.60;1.00;;;;;;5057197;28;20168;-56
2020/12/05 01:17:56;;;;;;;25.40;15.20;;;6.70;1.00;;;;;;5054337;28;20438;-55
2020/12/05 01:20:22;;;;;;;19.50;12.87;;;6.80;1.00;;;;;;5057393;28;20421;-55
2020/12/05 01:22:48;;;;;;;18.90;13.10;;;6.70;1.00;;;;;;5057573;28;20206;-54
2020/12/05 01:25:13;;;;;;;20.80;14.70;;;6.70;1.00;;;;;;5072386;28;20544;-55
2020/12/05 01:27:39;;;;;;;20.20;14.03;;;6.80;1.00;;;;;;5056890;28;20235;-57
2020/12/05 01:30:05;;;;;;;20.03;13.00;;;6.80;1.00;;;;;;5055486;28;20529;-55
2020/12/05 01:32:30;;;;;;;17.20;13.03;;;6.80;1.00;;;;;;5056775;28;20188;-59
2020/12/05 01:34:56;;;;;;;20.60;14.27;;;6.80;1.00;;;;;;5057655;28;20593;-56
2020/12/05 01:37:21;;;;;;;20.60;14.07;;;6.80;1.00;;;;;;5056996;28;20176;-56
2020/12/05 01:39:47;;;;;;;18.07;13.87;;;6.80;1.00;;;;;;5072836;28;20610;-59
2020/12/05 01:42:13;;;;;;;16.80;11.67;;;6.80;1.00;;;;;;5055924;28;20246;-59
2020/12/05 01:44:38;;;;;;;19.27;12.43;;;6.90;1.00;;;;;;5054082;28;20179;-59
2020/12/05 01:47:04;;;;;;;17.03;12.47;;;6.80;1.00;;;;;;5055686;28;20184;-59
2020/12/05 01:49:31;;;;;;;18.03;12.60;;;6.80;1.00;;;;;;5056155;28;20509;-55
2020/12/05 01:51:57;;;;;;;15.73;11.03;;;6.80;1.00;;;;;;5072787;28;20214;-55
2020/12/05 01:54:23;;;;;;;16.97;13.33;;;6.80;1.00;;;;;;5054364;28;20832;-54
2020/12/05 01:57:02;;;;;;;18.47;13.20;;;6.90;1.00;;;;;;5072743;28;20625;-58
2020/12/05 01:59:27;;;;;;;18.10;12.03;;;6.90;1.00;;;;;;5055814;28;20184;-56
2020/12/05 02:01:57;;;;;;;17.43;12.87;;;6.80;1.00;;;;;;5056237;28;20510;-54
2020/12/05 02:04:26;;;;;;;17.17;12.00;;;6.50;1.00;;;;;;5055310;28;20175;-59
2020/12/05 02:07:11;;;;;;;17.43;12.07;;;6.80;1.00;;;;;;5055785;28;20733;-55
2020/12/05 02:09:43;;;;;;;16.87;11.80;;;6.80;1.00;;;;;;5056431;28;20453;-58
2020/12/05 02:12:34;;;;;;;20.20;13.93;;;6.90;1.00;;;;;;5056415;28;20442;-58
2020/12/05 02:15:16;;;;;;;16.20;11.47;;;6.80;1.00;;;;;;5049105;28;20776;-55
2020/12/05 02:18:04;;;;;;;18.07;12.20;;;6.80;1.00;;;;;;5048385;28;20525;-57
2020/12/05 02:20:33;;;;;;;15.50;11.87;;;6.80;1.00;;;;;;5036754;28;20796;-54
2020/12/05 02:23:17;;;;;;;18.03;11.53;;;6.80;1.00;;;;;;5049550;28;20419;-55
2020/12/05 02:25:44;;;;;;;17.77;12.80;;;6.80;1.00;;;;;;5050778;28;20437;-55
2020/12/05 02:28:11;;;;;;;18.90;12.70;;;6.90;1.00;;;;;;5055166;28;20951;-59
2020/12/05 02:30:37;;;;;;;16.00;11.30;;;6.90;1.00;;;;;;5055840;28;20434;-58
2020/12/05 02:33:04;;;;;;;17.37;12.23;;;6.90;1.00;;;;;;5056329;28;20510;-58
2020/12/05 02:35:30;;;;;;;17.67;12.33;;;7.00;1.00;;;;;;5044026;28;20454;-58
2020/12/05 02:38:21;;;;;;;16.47;11.00;;;7.00;1.00;;;;;;5050589;28;20534;-59
2020/12/05 02:40:46;;;;;;;17.63;12.87;;;7.00;1.00;;;;;;5056242;28;20399;-55
2020/12/05 02:43:12;;;;;;;18.57;12.23;;;7.20;1.00;;;;;;5050348;28;20721;-58
2020/12/05 02:45:39;;;;;;;14.80;12.13;;;7.20;1.00;;;;;;5053729;28;20608;-59
2020/12/05 02:48:08;;;;;;;16.20;12.20;;;7.20;1.00;;;;;;5054410;28;20199;-55
2020/12/05 02:50:34;;;;;;;15.30;11.07;;;7.20;1.00;;;;;;5055710;28;20415;-55
2020/12/05 02:53:00;;;;;;;18.40;11.90;;;7.20;1.00;;;;;;5052864;28;20446;-55
2020/12/05 02:55:26;;;;;;;21.10;12.50;;;7.20;1.00;;;;;;5054547;28;20441;-59
2020/12/05 02:57:51;;;;;;;16.37;11.77;;;7.20;1.00;;;;;;5054740;28;22140;-54
2020/12/05 03:00:17;;;;;;;17.17;12.23;;;7.10;1.00;;;;;;5055468;28;20242;-59
2020/12/05 03:02:43;;;;;;;18.83;12.43;;;7.20;1.00;;;;;;5054605;28;20271;-59
2020/12/05 03:05:09;;;;;;;17.10;12.07;;;7.20;1.00;;;;;;5055050;28;20176;-58
2020/12/05 03:07:35;;;;;;;18.00;12.17;;;7.20;1.00;;;;;;5054281;28;20510;-59
2020/12/05 03:10:01;;;;;;;16.40;11.83;;;7.30;1.00;;;;;;5054658;28;20211;-55
2020/12/05 03:12:26;;;;;;;17.73;11.57;;;7.30;1.00;;;;;;5053928;28;20888;-54
2020/12/05 03:14:52;;;;;;;17.70;11.33;;;7.30;1.00;;;;;;5054924;28;20172;-54
2020/12/05 03:17:17;;;;;;;17.40;12.73;;;7.30;1.00;;;;;;5052162;28;20176;-54
2020/12/05 03:19:43;;;;;;;18.13;10.90;;;7.30;1.00;;;;;;5062634;28;20192;-57
2020/12/05 03:22:09;;;;;;;15.73;12.27;;;7.30;1.00;;;;;;5035172;28;20618;-59
2020/12/05 03:24:34;;;;;;;19.43;11.93;;;7.20;1.00;;;;;;5049940;28;20180;-54
2020/12/05 03:27:00;;;;;;;18.67;12.43;;;7.30;1.00;;;;;;5054778;28;20180;-54
2020/12/05 03:29:26;;;;;;;16.97;10.57;;;7.20;1.00;;;;;;5053438;28;20518;-58
2020/12/05 03:31:56;;;;;;;15.30;11.83;;;7.20;1.00;;;;;;5070678;28;20426;-54
2020/12/05 03:34:22;;;;;;;16.60;10.40;;;7.30;1.00;;;;;;5053969;28;20176;-58
2020/12/05 03:36:47;;;;;;;17.30;11.00;;;7.30;1.00;;;;;;5054873;28;20940;-54
2020/12/05 03:39:13;;;;;;;15.93;11.77;;;7.30;1.00;;;;;;5054914;28;20686;-54
2020/12/05 03:41:39;;;;;;;15.67;10.60;;;7.30;1.00;;;;;;5070226;28;20180;-54
2020/12/05 03:44:05;;;;;;;16.33;12.03;;;7.20;1.00;;;;;;5053252;28;20768;-58
2020/12/05 03:46:30;;;;;;;16.43;11.00;;;7.20;1.00;;;;;;5054621;28;20270;-57
2020/12/05 03:48:56;;;;;;;15.00;11.00;;;7.20;1.00;;;;;;5042440;28;20235;-57
2020/12/05 03:51:22;;;;;;;16.37;11.23;;;7.30;1.00;;;;;;5034623;28;20177;-57
2020/12/05 03:53:47;;;;;;;17.03;11.33;;;7.30;1.00;;;;;;5034762;28;20179;-58
2020/12/05 03:56:13;;;;;;;13.83;11.33;;;7.30;1.00;;;;;;5051536;28;20180;-54
2020/12/05 03:58:39;;;;;;;14.30;10.80;;;7.40;1.00;;;;;;5053573;28;20216;-59
2020/12/05 04:01:08;;;;;;;15.00;10.50;;;7.30;1.00;;;;;;5054780;28;20672;-54
2020/12/05 04:03:33;;;;;;;15.50;10.80;;;7.30;1.00;;;;;;5053999;28;20458;-55
2020/12/05 04:05:59;;;;;;;16.47;11.87;;;7.30;1.00;;;;;;5050648;28;20809;-54
2020/12/05 04:08:25;;;;;;;16.13;11.93;;;7.40;1.00;;;;;;5054121;28;20243;-55
2020/12/05 04:10:50;;;;;;;13.50;10.70;;;7.40;1.00;;;;;;5054037;28;20237;-54
2020/12/05 04:13:16;;;;;;;15.63;10.43;;;7.40;1.00;;;;;;5054472;28;20175;-54
2020/12/05 04:15:42;;;;;;;15.20;10.60;;;7.40;1.00;;;;;;5054401;28;20686;-59
2020/12/05 04:18:07;;;;;;;15.87;10.83;;;7.30;1.00;;;;;;5054268;28;20734;-58
2020/12/05 04:20:33;;;;;;;15.53;11.00;;;7.40;1.00;;;;;;5052635;28;20237;-55
2020/12/05 04:22:58;;;;;;;16.00;11.10;;;7.40;1.00;;;;;;5048995;28;20187;-59
2020/12/05 04:25:24;;;;;;;14.10;11.00;;;7.40;1.00;;;;;;5045989;28;20199;-55
2020/12/05 04:27:51;;;;;;;13.50;12.10;;;7.50;1.00;;;;;;5055749;28;20541;-55
2020/12/05 04:30:17;;;;;;;15.60;10.70;;;7.50;1.00;;;;;;5057482;28;20435;-58
2020/12/05 04:32:42;;;;;;;14.23;11.07;;;7.50;1.00;;;;;;5058388;28;20448;-55
2020/12/05 04:35:09;;;;;;;16.80;11.87;;;7.50;1.00;;;;;;5058269;28;20164;-58
2020/12/05 04:37:34;;;;;;;13.73;10.73;;;7.50;1.00;;;;;;5057899;28;20245;-58
2020/12/05 04:40:00;;;;;;;15.83;12.33;;;7.60;1.00;;;;;;5056640;28;20446;-58
2020/12/05 04:42:25;;;;;;;12.80;10.00;;;7.60;1.00;;;;;;5057517;28;20180;-58
2020/12/05 04:44:52;;;;;;;12.60;9.37;;;7.70;1.00;;;;;;5057159;28;20269;-55
2020/12/05 04:47:18;;;;;;;14.47;9.10;;;7.70;1.00;;;;;;5057678;28;20183;-55
2020/12/05 04:49:44;;;;;;;15.70;10.40;;;7.70;1.00;;;;;;5057655;28;20441;-58
2020/12/05 04:52:31;;;;;;;14.63;10.00;;;7.70;1.00;;;;;;5057679;28;20237;-58
2020/12/05 04:54:57;;;;;;;12.03;9.30;;;7.70;1.00;;;;;;5054920;28;20612;-54
2020/12/05 04:57:27;;;;;;;13.20;9.60;;;7.70;1.00;;;;;;5071649;28;20436;-54
2020/12/05 04:59:54;;;;;;;11.10;9.00;;;7.70;1.00;;;;;;5057562;28;20802;-54
2020/12/05 05:02:27;;;;;;;13.00;9.53;;;7.70;1.00;;;;;;5057478;28;20483;-55
2020/12/05 05:04:53;;;;;;;13.50;9.90;;;7.80;1.00;;;;;;5057633;28;20471;-54
2020/12/05 05:07:20;;;;;;;12.53;9.60;;;7.80;1.00;;;;;;5058159;28;20414;-57
2020/12/05 05:09:57;;;;;;;13.33;9.50;;;7.80;1.00;;;;;;5057030;28;20445;-57
2020/12/05 05:12:27;;;;;;;16.37;11.37;;;7.80;1.00;;;;;;5057330;28;20429;-54
2020/12/05 05:14:53;;;;;;;12.60;9.80;;;7.80;1.00;;;;;;5056704;28;20422;-57
2020/12/05 05:17:19;;;;;;;10.77;9.67;;;7.80;1.00;;;;;;5056331;28;20461;-57
2020/12/05 05:19:44;;;;;;;12.60;11.07;;;7.80;1.00;;;;;;5056767;28;20176;-54
2020/12/05 05:22:10;;;;;;;14.63;10.33;;;7.80;1.00;;;;;;5057439;28;20172;-55
2020/12/05 05:24:36;;;;;;;15.80;10.03;;;7.80;1.00;;;;;;5054777;28;20187;-55
2020/12/05 05:27:04;;;;;;;14.03;10.40;;;7.80;1.00;;;;;;5056848;28;20271;-57
2020/12/05 05:29:38;;;;;;;12.83;9.57;;;7.90;1.00;;;;;;5054583;28;20193;-57
2020/12/05 05:32:15;;;;;;;15.80;11.67;;;7.90;1.00;;;;;;5056770;28;20933;-54
2020/12/05 05:34:40;;;;;;;14.97;10.83;;;7.90;1.00;;;;;;5057284;28;20414;-58
2020/12/05 05:37:17;;;;;;;15.53;11.13;;;7.90;1.00;;;;;;5057092;28;20411;-54
2020/12/05 05:39:44;;;;;;;14.00;11.13;;;7.90;1.00;;;;;;5057074;28;20195;-54
2020/12/05 05:42:11;;;;;;;13.20;10.97;;;8.00;1.00;;;;;;5053744;28;20434;-54
2020/12/05 05:44:36;;;;;;;14.30;10.53;;;8.00;1.00;;;;;;5056695;28;20895;-58
2020/12/05 05:47:02;;;;;;;19.13;11.30;;;7.90;1.00;;;;;;5056859;28;20417;-58
2020/12/05 05:49:29;;;;;;;12.77;9.33;;;7.90;1.00;;;;;;5056551;28;20216;-57
2020/12/05 05:51:56;;;;;;;15.07;10.67;;;7.90;1.00;;;;;;5056131;28;20271;-58
2020/12/05 05:54:26;;;;;;;15.60;10.30;;;7.90;1.00;;;;;;5055786;28;20430;-56
2020/12/05 05:57:11;;;;;;;16.83;11.50;;;7.90;1.00;;;;;;5055484;28;20438;-58
2020/12/05 05:59:44;;;;;;;15.53;10.23;;;7.90;1.00;;;;;;5055658;28;20907;-58
2020/12/05 06:02:12;;;;;;;15.50;10.03;;;7.90;1.00;;;;;;5056285;28;20496;-59
2020/12/05 06:04:46;;;;;;;14.10;10.00;;;7.90;1.00;;;;;;5056843;28;20422;-55
2020/12/05 06:07:17;;;;;;;14.50;9.83;;;8.00;1.00;;;;;;5052885;28;20438;-58
2020/12/05 06:09:48;;;;;;;16.93;11.80;;;8.10;1.00;;;;;;5055721;28;20496;-54
2020/12/05 06:12:19;;;;;;;13.53;10.60;;;8.00;1.00;;;;;;5055326;28;20438;-55
2020/12/05 06:14:46;;;;;;;15.10;10.63;;;8.00;1.00;;;;;;5071963;28;20499;-55
2020/12/05 06:17:11;;;;;;;15.67;11.70;;;8.10;1.00;;;;;;5056483;28;20422;-61
2020/12/05 06:19:41;;;;;;;13.40;10.80;;;8.00;1.00;;;;;;5056090;28;20430;-56
2020/12/05 06:22:31;;;;;;;13.07;10.40;;;8.00;1.00;;;;;;5056228;28;20176;-56
2020/12/05 06:25:03;;;;;;;15.30;10.60;;;8.10;1.00;;;;;;5055972;28;20430;-59
2020/12/05 06:27:29;;;;;;;17.40;11.50;;;8.10;1.00;;;;;;5056286;28;20450;-59
2020/12/05 06:29:56;;;;;;;19.07;10.93;;;8.10;1.00;;;;;;5055820;28;20511;-59
2020/12/05 06:32:44;;;;;;;13.77;10.57;;;8.10;1.00;;;;;;5054184;28;20556;-54
2020/12/05 06:35:19;;;;;;;13.50;11.20;;;8.10;1.00;;;;;;5055301;28;20571;-54
2020/12/05 06:37:45;;;;;;;14.60;11.07;;;8.10;1.00;;;;;;5046172;28;20442;-55
2020/12/05 06:40:10;;;;;;;13.80;10.37;;;8.10;1.00;;;;;;5055436;28;20837;-55
2020/12/05 06:42:41;;;;;;;16.63;10.70;;;8.20;1.00;;;;;;5054365;28;20443;-58
2020/12/05 06:45:06;;;;;;;15.53;11.30;;;8.10;1.00;;;;;;5055323;28;20369;-55
2020/12/05 06:47:32;;;;;;;15.07;11.63;;;8.00;1.00;;;;;;5055507;28;20565;-58
2020/12/05 06:49:59;;;;;;;16.47;10.17;;;8.00;1.00;;;;;;5054393;28;20176;-58
2020/12/05 06:52:24;;;;;;;13.87;10.97;;;8.10;1.00;;;;;;5055254;28;20429;-55
2020/12/05 06:55:08;;;;;;;16.73;10.47;;;8.00;1.00;;;;;;5055560;28;20426;-56
2020/12/05 06:57:36;;;;;;;11.97;9.93;;;8.10;1.00;;;;;;5054618;28;20261;-55
2020/12/05 07:00:20;;;;;;;12.60;10.40;;;8.20;1.00;;;;;;5054990;28;20437;-59
2020/12/05 07:02:54;;;;;;;16.33;11.27;;;8.30;1.00;;;;;;5053961;28;20515;-60
2020/12/05 07:05:20;;;;;;;14.90;10.17;;;8.30;1.00;;;;;;5055648;28;20407;-56
2020/12/05 07:07:50;;;;;;;12.93;9.87;;;8.30;1.00;;;;;;5054629;28;20895;-60
2020/12/05 07:10:17;;;;;;;14.63;8.93;;;8.40;1.00;;;;;;5054140;28;20177;-56
2020/12/05 07:12:44;;;;;;;13.00;9.77;;;8.40;1.00;;;;;;5054856;28;20473;-65
2020/12/05 07:15:20;;;;;;;13.50;9.20;;;8.40;1.00;;;;;;5054400;28;20430;-58
2020/12/05 07:17:46;;;;;;;12.77;8.90;;;8.30;1.00;;;;;;5054600;28;20503;-54
2020/12/05 07:20:11;;;;;;;12.90;8.93;;;8.40;1.00;;;;;;5054904;28;20426;-59
2020/12/05 07:22:37;;;;;;;16.13;10.23;;;8.40;1.00;;;;;;5055081;28;20192;-54
2020/12/05 07:25:03;;;;;;;13.33;9.30;;;8.40;1.00;;;;;;5054871;28;20628;-58
2020/12/05 07:27:28;;;;;;;14.07;10.03;;;8.40;1.00;;;;;;5055433;28;20258;-59
2020/12/05 07:29:54;;;;;;;14.03;9.90;;;8.50;1.00;;;;;;5070219;28;20509;-58
2020/12/05 07:32:20;;;;;;;13.60;10.37;;;8.50;1.00;;;;;;5054521;28;20466;-55
2020/12/05 07:34:46;;;;;;;10.50;9.00;;;8.50;1.00;;;;;;5054612;28;20530;-56
2020/12/05 07:37:28;;;;;;;12.97;9.67;;;8.50;1.00;;;;;;5054598;28;20233;-54
2020/12/05 07:39:55;;;;;;;15.37;9.30;;;8.60;1.00;;;;;;5055165;28;20525;-59
2020/12/05 07:42:21;;;;;;;13.47;9.63;;;8.60;1.00;;;;;;5054320;28;20431;-59
2020/12/05 07:44:47;;;;;;;12.40;9.27;;;8.60;1.00;;;;;;5054565;28;20502;-55
2020/12/05 07:47:20;;;;;;;14.50;9.87;;;8.70;1.00;;;;;;5054500;28;20510;-59
2020/12/05 07:49:53;;;;;;;16.77;10.20;;;8.60;1.00;;;;;;5054346;28;20904;-59
2020/12/05 07:52:22;;;;;;;13.30;10.37;;;8.70;1.00;;;;;;5053664;28;20418;-55
2020/12/05 07:54:55;;;;;;;14.50;9.40;;;8.80;1.00;;;;;;5053452;28;20855;-56
2020/12/05 07:57:25;;;;;;;15.03;10.20;;;8.90;1.00;;;;;;5054931;28;20429;-59
2020/12/05 07:59:59;;;;;;;12.83;9.83;;;9.00;1.00;;;;;;5054579;28;20485;-55
2020/12/05 08:02:34;;;;;;;10.60;8.40;;;9.00;1.00;;;;;;5054543;28;20481;-58
2020/12/05 08:05:05;;;;;;;13.93;10.27;;;9.10;1.00;;;;;;5054691;28;20430;-58
2020/12/05 08:07:37;;;;;;;13.03;10.00;;;9.20;1.00;;;;;;5053825;28;20501;-57
2020/12/05 08:10:15;;;;;;;13.40;9.10;;;9.30;1.00;;;;;;5053019;28;20795;-57
2020/12/05 08:12:43;;;;;;;11.10;9.20;;;9.40;1.00;;;;;;5053292;28;20434;-57
2020/12/05 08:15:12;;;;;;;10.53;8.00;;;9.50;1.00;;;;;;5053765;28;20426;-57
2020/12/05 08:17:39;;;;;;;13.30;8.57;;;9.60;1.00;;;;;;5053478;28;20426;-55
2020/12/05 08:20:05;;;;;;;11.83;8.77;;;9.60;1.00;;;;;;5054122;28;20444;-59
2020/12/05 08:22:31;;;;;;;9.57;8.57;;;9.60;1.00;;;;;;5053785;28;20880;-57
2020/12/05 08:24:57;;;;;;;14.00;9.47;;;9.60;1.00;;;;;;5054029;28;20187;-56
2020/12/05 08:27:24;;;;;;;12.43;8.73;;;9.50;1.00;;;;;;5053595;28;20437;-54
2020/12/05 08:29:50;;;;;;;10.63;8.03;;;9.40;1.00;;;;;;5053168;28;20501;-54
2020/12/05 08:32:20;;;;;;;13.03;9.70;;;9.40;1.00;;;;;;5053186;28;20895;-56
2020/12/05 08:34:46;;;;;;;11.20;7.90;;;9.30;1.00;;;;;;5053644;28;20443;-54
2020/12/05 08:37:21;;;;;;;13.43;8.33;;;9.20;1.00;;;;;;5053086;28;20434;-57
2020/12/05 08:39:49;;;;;;;15.13;8.60;;;9.50;1.00;;;;;;5053332;28;20254;-56
2020/12/05 08:42:15;;;;;;;12.03;8.70;;;9.70;1.00;;;;;;5053569;28;20485;-55
2020/12/05 08:44:41;;;;;;;11.60;9.03;;;9.50;1.00;;;;;;5053023;28;20426;-56
2020/12/05 08:47:07;;;;;;;11.23;8.50;;;9.40;1.00;;;;;;5053294;28;20169;-55
2020/12/05 08:49:41;;;;;;;12.53;9.07;;;9.40;1.00;;;;;;5068471;28;20262;-56
2020/12/05 08:52:08;;;;;;;9.90;8.40;;;9.50;1.00;;;;;;5053472;28;20601;-56
2020/12/05 08:54:44;;;;;;;11.90;8.43;;;9.50;1.00;;;;;;5053279;28;20431;-56
2020/12/05 08:57:12;;;;;;;11.90;8.20;;;9.50;1.00;;;;;;5053010;28;20418;-56
2020/12/05 08:59:38;;;;;;;10.17;8.07;;;9.70;1.00;;;;;;5051411;28;20523;-58
2020/12/05 09:02:04;;;;;;;11.67;8.93;;;9.60;1.00;;;;;;5053298;28;20454;-57
2020/12/05 09:04:32;;;;;;;10.00;7.93;;;9.50;1.00;;;;;;5052717;28;20919;-55
2020/12/05 09:07:11;;;;;;;13.13;8.00;;;9.70;1.00;;;;;;5068710;28;20445;-57
2020/12/05 09:09:38;;;;;;;14.30;9.37;;;9.60;1.00;;;;;;5046445;28;20465;-56
2020/12/05 09:12:14;;;;;;;11.73;8.13;;;9.50;1.00;;;;;;5052370;28;20434;-55
2020/12/05 09:14:41;;;;;;;9.67;7.37;;;9.60;1.00;;;;;;5036410;28;20474;-56
2020/12/05 09:17:30;;;;;;;11.83;8.83;;;9.60;1.00;;;;;;5045044;28;20429;-56
2020/12/05 09:20:19;;;;;;;12.87;8.83;;;9.70;1.00;;;;;;5057025;28;20541;-58
2020/12/05 09:22:54;;;;;;;11.20;8.50;;;9.90;1.00;;;;;;5073080;28;20879;-56
2020/12/05 09:25:37;;;;;;;11.93;8.40;;;10.00;1.00;;;;;;5056533;28;20429;-57
2020/12/05 09:28:14;;;;;;;11.47;7.97;;;10.20;1.00;;;;;;5056143;28;20450;-57
2020/12/05 09:30:40;;;;;;;10.10;8.27;;;10.20;1.00;;;;;;5056971;28;20421;-55
2020/12/05 09:33:10;;;;;;;11.10;8.90;;;10.30;1.00;;;;;;5056938;28;20954;-56
2020/12/05 09:35:36;;;;;;;12.50;8.90;;;10.40;1.00;;;;;;5056937;28;20737;-58
2020/12/05 09:38:02;;;;;;;10.40;7.93;;;10.30;1.00;;;;;;5070444;28;20776;-58
2020/12/05 09:40:29;;;;;;;11.77;8.67;;;10.30;1.00;;;;;;5054890;28;20439;-57
2020/12/05 09:42:55;;;;;;;9.33;7.67;;;10.60;1.00;;;;;;5056503;28;20431;-57
2020/12/05 09:45:20;;;;;;;8.83;7.20;;;10.70;1.00;;;;;;5055339;28;20470;-58
2020/12/05 09:47:46;;;;;;;7.70;6.90;;;10.90;1.00;;;;;;5054309;28;20951;-58
2020/12/05 09:50:14;;;;;;;10.60;6.97;;;11.10;1.00;;;;;;5056233;28;20712;-56
2020/12/05 09:52:40;;;;;;;8.80;6.50;;;11.20;1.00;;;;;;5056506;28;20247;-58
2020/12/05 09:55:06;;;;;;;12.53;7.97;;;11.50;1.00;;;;;;5056677;28;20422;-57
2020/12/05 09:57:33;;;;;;;10.00;7.97;;;11.80;1.00;;;;;;5055578;28;20901;-58
2020/12/05 09:59:59;;;;;;;9.47;6.77;;;12.00;1.00;;;;;;5056428;28;20425;-56
2020/12/05 10:02:24;;;;;;;8.57;6.40;;;12.10;1.00;;;;;;5055228;28;20431;-59
2020/12/05 10:04:50;;;;;;;10.13;6.60;;;11.90;1.00;;;;;;5056060;28;20459;-55
2020/12/05 10:07:16;;;;;;;10.10;7.60;;;11.80;1.00;;;;;;5055692;28;20179;-57
2020/12/05 10:09:41;;;;;;;8.93;6.80;;;11.60;1.00;;;;;;5056228;28;20183;-57
2020/12/05 10:12:07;;;;;;;10.70;8.00;;;11.50;1.00;;;;;;5055777;28;20182;-57
2020/12/05 10:14:33;;;;;;;10.03;7.50;;;11.30;1.00;;;;;;5056227;28;20824;-58
2020/12/05 10:16:59;;;;;;;9.90;6.70;;;11.10;1.00;;;;;;5056058;28;20285;-55
2020/12/05 10:19:24;;;;;;;10.00;6.97;;;11.00;1.00;;;;;;5055909;28;20607;-57
2020/12/05 10:21:50;;;;;;;9.77;6.90;;;11.00;1.00;;;;;;5055765;28;20415;-58
2020/12/05 10:24:17;;;;;;;8.83;7.23;;;11.00;1.00;;;;;;5055181;28;20186;-58
2020/12/05 10:26:50;;;;;;;9.20;7.17;;;11.00;1.00;;;;;;5055159;28;20622;-59
2020/12/05 10:29:16;;;;;;;11.30;7.70;;;11.00;1.00;;;;;;5055841;28;20455;-56
2020/12/05 10:31:46;;;;;;;9.10;7.23;;;10.90;1.00;;;;;;5055838;28;20471;-56
2020/12/05 10:34:13;;;;;;;9.90;7.40;;;10.90;1.00;;;;;;5054735;28;20426;-57
2020/12/05 10:36:39;;;;;;;9.23;6.67;;;10.90;1.00;;;;;;5055761;28;20961;-56
2020/12/05 10:39:06;;;;;;;8.60;6.83;;;10.80;1.00;;;;;;5055505;28;20439;-54
2020/12/05 10:41:32;;;;;;;8.20;6.50;;;10.80;1.00;;;;;;5055212;28;20463;-56
2020/12/05 10:43:58;;;;;;;9.37;7.97;;;10.80;1.00;;;;;;5055615;28;20431;-56
2020/12/05 10:46:24;;;;;;;9.87;7.70;;;10.80;1.00;;;;;;5070319;28;20463;-55
2020/12/05 10:48:50;;;;;;;12.50;8.03;;;10.90;1.00;;;;;;5055373;28;20590;-57
2020/12/05 10:51:15;;;;;;;12.90;7.80;;;11.00;1.00;;;;;;5054977;28;20451;-57
2020/12/05 10:53:41;;;;;;;10.97;8.33;;;11.00;1.00;;;;;;5055001;28;20430;-57
2020/12/05 10:56:07;;;;;;;10.50;7.70;;;10.90;1.00;;;;;;5055163;28;20173;-57
2020/12/05 10:58:33;;;;;;;10.07;8.10;;;11.00;1.00;;;;;;5054981;28;20184;-57
2020/12/05 11:00:59;;;;;;;11.83;7.50;;;11.30;1.00;;;;;;5055113;28;20197;-57
2020/12/05 11:03:24;;;;;;;13.23;9.83;;;11.30;1.00;;;;;;5055009;28;20680;-57
2020/12/05 11:05:50;;;;;;;16.90;9.70;;;11.40;1.00;;;;;;5054980;28;20633;-58
2020/12/05 11:08:16;;;;;;;12.30;9.07;;;11.30;1.00;;;;;;5054809;28;20256;-56
2020/12/05 11:10:41;;;;;;;13.87;9.97;;;11.30;1.00;;;;;;5055006;28;20566;-57
2020/12/05 11:13:07;;;;;;;19.80;10.13;;;11.20;1.00;;;;;;5055091;28;20168;-61
2020/12/05 11:15:32;;;;;;;11.83;9.20;;;11.30;1.00;;;;;;5054882;28;20247;-58
2020/12/05 11:17:58;;;;;;;13.07;10.60;;;11.20;1.00;;;;;;5054788;28;20528;-60
2020/12/05 11:20:24;;;;;;;14.40;9.70;;;11.30;1.00;;;;;;5054924;28;20207;-57
2020/12/05 11:22:49;;;;;;;15.43;10.00;;;11.50;1.00;;;;;;5070076;28;20178;-58
2020/12/05 11:25:15;;;;;;;12.30;10.30;;;11.40;1.00;;;;;;5054902;28;20176;-57
2020/12/05 11:27:41;;;;;;;19.83;10.40;;;11.40;1.00;;;;;;5054743;28;20201;-58
2020/12/05 11:30:07;;;;;;;13.73;10.50;;;11.40;1.00;;;;;;5053845;28;20614;-57
2020/12/05 11:32:33;;;;;;;16.00;10.60;;;11.50;1.00;;;;;;5054672;28;20423;-57
2020/12/05 11:34:59;;;;;;;14.07;10.10;;;11.50;1.00;;;;;;5054425;28;20418;-58
2020/12/05 11:37:24;;;;;;;16.47;10.60;;;11.50;1.00;;;;;;5054345;28;20183;-58
2020/12/05 11:39:50;;;;;;;13.07;10.63;;;11.50;1.00;;;;;;5054444;28;20222;-58
2020/12/05 11:42:15;;;;;;;13.17;10.23;;;11.50;1.00;;;;;;5054410;28;20178;-59
2020/12/05 11:44:41;;;;;;;14.90;10.70;;;11.50;1.00;;;;;;5054530;28;20260;-58
2020/12/05 11:47:07;;;;;;;15.20;11.07;;;11.40;1.00;;;;;;5070082;28;20635;-57
2020/12/05 11:49:32;;;;;;;13.20;10.13;;;11.30;1.00;;;;;;5054034;28;20204;-58
2020/12/05 11:51:58;;;;;;;14.50;10.60;;;11.30;1.00;;;;;;5053494;28;20614;-59
2020/12/05 11:54:25;;;;;;;18.03;11.73;;;11.40;1.00;;;;;;5053966;28;20177;-58
2020/12/05 11:56:50;;;;;;;13.40;11.10;;;11.30;1.00;;;;;;5053875;28;20416;-58
2020/12/05 11:59:16;;;;;;;15.70;11.27;;;11.20;1.00;;;;;;5053927;28;20710;-58
2020/12/05 12:01:42;;;;;;;13.90;10.53;;;11.20;1.00;;;;;;5053932;28;20505;-57
2020/12/05 12:04:08;;;;;;;13.00;10.50;;;11.10;1.00;;;;;;5054052;28;20607;-57
2020/12/05 12:06:34;;;;;;;12.30;10.37;;;11.00;1.00;;;;;;5053824;28;20488;-58
2020/12/05 12:09:00;;;;;;;17.87;11.83;;;10.90;1.00;;;;;;5054020;28;20757;-58
2020/12/05 12:11:26;;;;;;;13.73;11.10;;;11.10;1.00;;;;;;5053923;28;20588;-57
2020/12/05 12:13:51;;;;;;;17.27;11.70;;;11.00;1.00;;;;;;5053977;28;20172;-57
2020/12/05 12:16:17;;;;;;;14.40;11.13;;;11.00;1.00;;;;;;5053903;28;20476;-57
2020/12/05 12:18:43;;;;;;;13.77;10.63;;;11.00;1.00;;;;;;5053587;28;20188;-57
2020/12/05 12:21:09;;;;;;;24.20;11.03;;;11.00;1.00;;;;;;5033909;28;20450;-57
2020/12/05 12:23:35;;;;;;;17.23;13.23;;;11.00;1.00;;;;;;5033926;28;20515;-57
2020/12/05 12:26:01;;;;;;;15.30;11.47;;;11.00;1.00;;;;;;5034115;28;20189;-58
2020/12/05 12:28:27;;;;;;;15.40;11.23;;;10.90;1.00;;;;;;5033889;28;20450;-58
2020/12/05 12:30:53;;;;;;;18.63;12.37;;;10.80;1.00;;;;;;5046029;28;20444;-55
2020/12/05 12:33:18;;;;;;;19.37;11.47;;;10.80;1.00;;;;;;5053825;28;20180;-57
2020/12/05 12:35:45;;;;;;;12.20;10.90;;;10.80;1.00;;;;;;5053757;28;20165;-58
2020/12/05 12:38:11;;;;;;;14.03;11.20;;;10.80;1.00;;;;;;5036089;28;20323;-56
2020/12/05 12:40:37;;;;;;;15.97;11.90;;;10.90;1.00;;;;;;5053659;28;20424;-56
2020/12/05 12:43:02;;;;;;;15.73;11.90;;;10.90;1.00;;;;;;5053555;28;20423;-56
2020/12/05 12:45:30;;;;;;;17.77;11.50;;;11.00;1.00;;;;;;5053407;28;20473;-58
2020/12/05 12:48:36;;;;;;;17.37;13.17;;;11.00;1.00;;;;;;5054264;28;20582;-58
2020/12/05 12:50:44;;;;;;;15.67;11.07;;;11.10;1.00;;;;;;5057714;28;20423;-57
2020/12/05 12:53:10;;;;;;;15.30;11.10;;;11.30;1.00;;;;;;5073515;28;20434;-58